createdAt,value
2018-01-01T00:00:27.794Z,18.25
2018-01-01T00:02:58.343Z,14.75
2018-01-01T00:05:29.907Z,9.75
2018-01-01T00:08:01.687Z,12.50
2018-01-01T00:10:33.740Z,11.50
2018-01-01T00:13:05.158Z,11.00
2018-01-01T00:15:36.105Z,11.75
2018-01-01T00:18:07.317Z,8.75
2018-01-01T00:20:43.133Z,9.50
2018-01-01T00:23:13.806Z,13.00
2018-01-01T00:25:45.492Z,11.75
2018-01-01T00:28:16.244Z,12.50
2018-01-01T00:30:47.871Z,21.25
2018-01-01T00:33:19.176Z,21.50
2018-01-01T00:35:50.985Z,17.50
2018-01-01T00:38:21.461Z,18.00
2018-01-01T00:40:52.579Z,19.50
2018-01-01T00:43:23.592Z,18.75
2018-01-01T00:45:54.375Z,21.25
2018-01-01T00:48:25.105Z,17.75
2018-01-01T00:50:56.113Z,16.50
2018-01-01T00:53:28.675Z,17.25
2018-01-01T00:56:00.661Z,17.75
2018-01-01T00:58:31.870Z,16.75
2018-01-01T01:01:02.712Z,13.25
2018-01-01T01:03:36.916Z,13.75
2018-01-01T01:08:45.658Z,12.25
2018-01-01T01:11:16.487Z,7.00
2018-01-01T01:13:47.081Z,9.50
2018-01-01T01:16:19.179Z,6.00
2018-01-01T01:18:51.261Z,7.50
2018-01-01T01:21:24.605Z,4.00
2018-01-01T01:23:56.233Z,3.00
2018-01-01T01:26:26.968Z,3.00
2018-01-01T01:28:58.447Z,3.00
2018-01-01T01:31:29.327Z,0.50
2018-01-01T01:34:00.737Z,2.00
2018-01-01T01:36:31.638Z,3.00
2018-01-01T01:39:02.825Z,0.50
2018-01-01T01:41:48.846Z,0.00
2018-01-01T01:44:21.912Z,1.00
2018-01-01T01:46:53.219Z,0.00
2018-01-01T01:49:23.989Z,0.00
2018-01-01T01:51:54.521Z,0.25
2018-01-01T01:54:27.146Z,0.50
2018-01-01T01:57:01.315Z,0.00
2018-01-01T01:59:34.813Z,1.00
2018-01-01T02:02:05.731Z,1.00
2018-01-01T02:04:36.501Z,0.00
2018-01-01T02:07:08.576Z,0.75
2018-01-01T02:09:39.375Z,0.50
2018-01-01T02:12:11.397Z,0.00
2018-01-01T02:14:45.977Z,0.00
2018-01-01T02:17:17.425Z,0.00
2018-01-01T02:19:47.987Z,0.00
2018-01-01T02:22:18.926Z,0.00
2018-01-01T02:24:50.485Z,1.00
2018-01-01T02:27:22.139Z,0.75
2018-01-01T02:29:52.697Z,0.50
2018-01-01T02:32:32.076Z,3.00
2018-01-01T02:35:03.287Z,1.00
2018-01-01T02:37:33.837Z,1.00
2018-01-01T02:40:04.540Z,1.00
2018-01-01T02:42:35.297Z,1.00
2018-01-01T02:47:52.986Z,0.00
2018-01-01T02:50:23.875Z,0.50
2018-01-01T02:52:54.407Z,0.75
2018-01-01T02:55:25.292Z,1.00
2018-01-01T02:57:55.699Z,0.00
2018-01-01T03:00:38.430Z,1.00
2018-01-01T03:03:09.067Z,1.00
2018-01-01T03:05:39.567Z,1.00
2018-01-01T03:08:10.204Z,1.00
2018-01-01T03:10:41.681Z,0.50
2018-01-01T03:13:12.226Z,1.00
2018-01-01T03:15:44.927Z,1.00
2018-01-01T03:18:16.456Z,0.00
2018-01-01T03:20:48.690Z,1.00
2018-01-01T03:23:20.715Z,0.00
2018-01-01T03:26:03.963Z,1.00
2018-01-01T03:28:34.542Z,1.00
2018-01-01T03:31:05.989Z,1.00
2018-01-01T03:33:36.463Z,1.00
2018-01-01T03:36:07.573Z,1.00
2018-01-01T03:38:39.174Z,1.00
2018-01-01T03:41:10.654Z,2.50
2018-01-01T03:43:43.385Z,1.00
2018-01-01T03:46:15.351Z,1.00
2018-01-01T03:48:46.881Z,2.50
2018-01-01T03:51:18.642Z,1.00
2018-01-01T03:53:50.913Z,0.25
2018-01-01T03:56:22.648Z,2.50
2018-01-01T03:58:53.335Z,0.50
2018-01-01T04:01:24.479Z,0.75
2018-01-01T04:03:56.848Z,0.75
2018-01-01T04:06:27.809Z,0.00
2018-01-01T04:08:58.407Z,0.00
2018-01-01T04:11:28.929Z,1.00
2018-01-01T04:13:59.659Z,0.50
2018-01-01T04:16:31.757Z,0.00
2018-01-01T04:21:33.009Z,1.00
2018-01-01T04:24:04.607Z,0.00
2018-01-01T04:26:36.007Z,0.00
2018-01-01T04:29:07.215Z,0.25
2018-01-01T04:31:39.953Z,0.00
2018-01-01T04:34:11.073Z,1.00
2018-01-01T04:36:59.558Z,0.25
2018-01-01T04:39:31.229Z,0.00
2018-01-01T04:42:02.139Z,0.00
2018-01-01T04:44:33.912Z,0.50
2018-01-01T04:47:04.616Z,0.75
2018-01-01T04:49:36.694Z,0.00
2018-01-01T04:52:07.850Z,0.00
2018-01-01T04:57:20.542Z,0.00
2018-01-01T04:59:51.306Z,0.00
2018-01-01T05:02:23.180Z,0.50
2018-01-01T05:04:54.819Z,0.00
2018-01-01T05:07:25.581Z,0.00
2018-01-01T05:09:56.158Z,0.00
2018-01-01T05:12:27.230Z,0.00
2018-01-01T05:14:58.371Z,0.50
2018-01-01T05:17:31.100Z,0.00
2018-01-01T05:20:02.282Z,0.25
2018-01-01T05:22:33.460Z,0.25
2018-01-01T05:25:04.471Z,0.00
2018-01-01T05:27:35.262Z,0.00
2018-01-01T05:30:08.136Z,0.00
2018-01-01T05:32:39.890Z,0.00
2018-01-01T05:35:10.557Z,0.00
2018-01-01T05:37:41.278Z,0.00
2018-01-01T05:40:11.903Z,0.00
2018-01-01T05:42:42.354Z,0.00
2018-01-01T05:45:16.189Z,0.00
2018-01-01T05:47:47.846Z,0.25
2018-01-01T05:50:22.230Z,0.00
2018-01-01T05:52:55.122Z,0.00
2018-01-01T05:55:25.676Z,0.00
2018-01-01T05:58:00.354Z,0.00
2018-01-01T06:00:31.621Z,0.00
2018-01-01T06:03:08.847Z,0.00
2018-01-01T06:05:40.153Z,0.00
2018-01-01T06:08:10.606Z,0.00
2018-01-01T06:10:41.641Z,0.00
2018-01-01T06:13:12.142Z,0.00
2018-01-01T06:15:43.431Z,0.00
2018-01-01T06:18:13.904Z,0.50
2018-01-01T06:20:45.222Z,0.00
2018-01-01T06:23:15.833Z,0.00
2018-01-01T06:25:46.239Z,1.00
2018-01-01T06:28:23.520Z,0.00
2018-01-01T06:30:54.443Z,1.00
2018-01-01T06:33:24.937Z,0.00
2018-01-01T06:35:55.508Z,0.00
2018-01-01T06:38:25.988Z,0.00
2018-01-01T06:40:56.899Z,0.25
2018-01-01T06:43:27.522Z,1.00
2018-01-01T06:45:57.857Z,0.00
2018-01-01T06:48:28.561Z,1.00
2018-01-01T06:50:59.475Z,0.25
2018-01-01T06:53:30.006Z,1.00
2018-01-01T06:56:00.582Z,1.50
2018-01-01T06:58:31.089Z,1.00
2018-01-01T07:01:01.703Z,3.00
2018-01-01T07:03:32.532Z,1.00
2018-01-01T07:06:03.235Z,3.00
2018-01-01T07:08:34.449Z,0.75
2018-01-01T07:11:05.684Z,1.00
2018-01-01T07:13:38.154Z,1.00
2018-01-01T07:16:08.986Z,0.75
2018-01-01T07:18:39.732Z,1.00
2018-01-01T07:21:10.141Z,1.00
2018-01-01T07:23:41.123Z,0.50
2018-01-01T07:26:11.721Z,1.00
2018-01-01T07:28:42.158Z,1.00
2018-01-01T07:33:52.930Z,1.00
2018-01-01T07:36:36.353Z,0.00
2018-01-01T07:39:07.987Z,0.00
2018-01-01T07:41:38.417Z,2.50
2018-01-01T07:44:09.755Z,0.00
2018-01-01T07:46:40.535Z,0.00
2018-01-01T07:49:11.100Z,1.00
2018-01-01T07:51:41.545Z,0.50
2018-01-01T07:54:11.912Z,0.75
2018-01-01T07:56:43.558Z,0.00
2018-01-01T07:59:13.846Z,0.00
2018-01-01T08:01:44.747Z,1.00
2018-01-01T08:04:15.129Z,0.75
2018-01-01T08:06:45.727Z,0.00
2018-01-01T08:09:16.786Z,1.00
2018-01-01T08:11:48.229Z,0.00
2018-01-01T08:14:18.602Z,0.00
2018-01-01T08:16:50.361Z,0.00
2018-01-01T08:19:21.266Z,0.00
2018-01-01T08:21:52.111Z,0.00
2018-01-01T08:24:23.070Z,1.00
2018-01-01T08:26:56.708Z,1.00
2018-01-01T08:29:27.694Z,0.50
2018-01-01T08:31:58.570Z,3.00
2018-01-01T08:34:28.959Z,0.00
2018-01-01T08:37:00.806Z,0.75
2018-01-01T08:39:31.952Z,1.00
2018-01-01T08:42:02.753Z,1.00
2018-01-01T08:44:33.220Z,0.00
2018-01-01T08:47:04.296Z,0.00
2018-01-01T08:49:36.554Z,0.00
2018-01-01T08:52:08.196Z,0.00
2018-01-01T08:54:39.070Z,0.00
2018-01-01T08:57:09.816Z,0.00
2018-01-01T08:59:40.297Z,0.00
2018-01-01T09:02:11.204Z,0.00
2018-01-01T09:04:42.416Z,0.00
2018-01-01T09:07:12.965Z,0.00
2018-01-01T09:09:49.005Z,0.00
2018-01-01T09:12:19.529Z,0.00
2018-01-01T09:14:50.008Z,0.00
2018-01-01T09:17:20.690Z,0.00
2018-01-01T09:19:52.006Z,-0.25
2018-01-01T09:22:22.845Z,0.00
2018-01-01T09:24:53.293Z,0.00
2018-01-01T09:27:23.862Z,0.00
2018-01-01T09:29:54.492Z,0.00
2018-01-01T09:32:26.059Z,0.00
2018-01-01T09:34:56.796Z,0.00
2018-01-01T09:37:27.232Z,0.00
2018-01-01T09:39:57.796Z,0.00
2018-01-01T09:42:28.650Z,0.00
2018-01-01T09:44:59.174Z,0.00
2018-01-01T09:47:29.795Z,0.00
2018-01-01T09:50:01.425Z,1.00
2018-01-01T09:52:31.981Z,1.00
2018-01-01T09:55:02.375Z,0.00
2018-01-01T09:57:36.251Z,0.00
2018-01-01T10:00:10.704Z,0.00
2018-01-01T10:02:44.642Z,7.75
2018-01-01T10:05:15.356Z,0.00
2018-01-01T10:07:47.134Z,0.00
2018-01-01T10:10:17.961Z,1.00
2018-01-01T10:12:48.536Z,1.00
2018-01-01T10:15:19.387Z,1.00
2018-01-01T10:17:52.269Z,0.50
2018-01-01T10:20:22.948Z,1.00
2018-01-01T10:22:53.744Z,0.25
2018-01-01T10:25:24.451Z,4.00
2018-01-01T10:27:55.223Z,0.00
2018-01-01T10:30:27.036Z,1.00
2018-01-01T10:32:57.882Z,0.00
2018-01-01T10:35:28.784Z,1.00
2018-01-01T10:38:01.170Z,1.00
2018-01-01T10:40:31.919Z,1.00
2018-01-01T10:43:02.909Z,1.00
2018-01-01T10:45:33.617Z,0.00
2018-01-01T10:48:05.646Z,0.25
2018-01-01T10:50:36.852Z,0.50
2018-01-01T10:53:07.475Z,0.25
2018-01-01T10:55:37.952Z,1.00
2018-01-01T10:58:09.436Z,1.00
2018-01-01T11:00:44.422Z,0.50
2018-01-01T11:03:15.803Z,0.75
2018-01-01T11:05:48.071Z,4.50
2018-01-01T11:08:18.778Z,1.00
2018-01-01T11:10:51.232Z,1.00
2018-01-01T11:13:21.790Z,0.00
2018-01-01T11:15:52.905Z,0.00
2018-01-01T11:18:23.418Z,0.50
2018-01-01T11:20:54.075Z,1.00
2018-01-01T11:23:25.852Z,0.00
2018-01-01T11:25:56.399Z,0.00
2018-01-01T11:28:27.031Z,0.50
2018-01-01T11:30:57.888Z,0.75
2018-01-01T11:33:28.462Z,2.00
2018-01-01T11:35:59.481Z,0.00
2018-01-01T11:38:30.724Z,0.25
2018-01-01T11:41:01.458Z,0.75
2018-01-01T11:43:33.030Z,0.00
2018-01-01T11:46:05.157Z,0.00
2018-01-01T11:48:35.814Z,4.50
2018-01-01T11:51:06.570Z,0.25
2018-01-01T11:53:37.138Z,1.00
2018-01-01T11:56:08.201Z,1.00
2018-01-01T11:58:39.080Z,0.50
2018-01-01T12:01:10.024Z,1.00
2018-01-01T12:03:40.612Z,1.50
2018-01-01T12:06:16.839Z,1.00
2018-01-01T12:08:47.416Z,4.00
2018-01-01T12:11:19.821Z,1.00
2018-01-01T12:14:01.378Z,0.75
2018-01-01T12:16:32.584Z,0.00
2018-01-01T12:19:03.260Z,1.00
2018-01-01T12:21:33.992Z,0.00
2018-01-01T12:24:08.951Z,1.00
2018-01-01T12:26:39.820Z,0.50
2018-01-01T12:29:20.192Z,0.00
2018-01-01T12:31:54.939Z,0.00
2018-01-01T12:34:25.622Z,0.75
2018-01-01T12:36:56.711Z,0.00
2018-01-01T12:39:27.457Z,0.00
2018-01-01T12:41:58.151Z,0.50
2018-01-01T12:44:28.923Z,1.00
2018-01-01T12:46:59.891Z,0.25
2018-01-01T12:49:30.441Z,0.00
2018-01-01T12:52:03.856Z,0.00
2018-01-01T12:54:36.898Z,0.00
2018-01-01T12:57:07.759Z,1.00
2018-01-01T12:59:39.278Z,1.00
2018-01-01T13:02:10.178Z,1.00
2018-01-01T13:04:40.947Z,0.75
2018-01-01T13:07:12.245Z,0.00
2018-01-01T13:09:43.156Z,0.00
2018-01-01T13:12:13.969Z,0.50
2018-01-01T13:14:46.110Z,0.00
2018-01-01T13:17:17.457Z,0.00
2018-01-01T13:19:52.735Z,0.00
2018-01-01T13:22:24.144Z,0.50
2018-01-01T13:24:56.213Z,1.00
2018-01-01T13:27:27.954Z,0.75
2018-01-01T13:29:59.387Z,0.50
2018-01-01T13:32:32.221Z,0.25
2018-01-01T13:35:03.016Z,0.00
2018-01-01T13:37:34.177Z,0.00
2018-01-01T13:40:05.044Z,0.00
2018-01-01T13:42:36.158Z,0.25
2018-01-01T13:45:07.986Z,1.00
2018-01-01T13:47:40.369Z,1.00
2018-01-01T13:50:13.836Z,1.75
2018-01-01T13:52:51.235Z,0.00
2018-01-01T13:55:23.981Z,0.00
2018-01-01T13:57:54.418Z,1.25
2018-01-01T14:00:25.528Z,0.00
2018-01-01T14:02:56.408Z,1.25
2018-01-01T14:05:29.928Z,1.75
2018-01-01T14:08:03.491Z,1.00
2018-01-01T14:10:39.416Z,1.00
2018-01-01T14:13:12.593Z,0.00
2018-01-01T14:15:43.972Z,1.00
2018-01-01T14:18:16.193Z,1.00
2018-01-01T14:20:52.302Z,0.00
2018-01-01T14:23:25.392Z,1.00
2018-01-01T14:26:10.379Z,1.00
2018-01-01T14:28:45.244Z,1.00
2018-01-01T14:31:16.679Z,1.00
2018-01-01T14:33:48.049Z,1.00
2018-01-01T14:36:18.589Z,2.75
2018-01-01T14:38:49.628Z,1.00
2018-01-01T14:41:26.359Z,3.25
2018-01-01T14:43:57.915Z,1.75
2018-01-01T14:46:29.967Z,2.25
2018-01-01T14:49:00.627Z,1.00
2018-01-01T14:51:31.854Z,1.00
2018-01-01T14:54:02.957Z,1.50
2018-01-01T14:56:34.100Z,1.00
2018-01-01T14:59:05.349Z,1.00
2018-01-01T15:01:36.871Z,1.00
2018-01-01T15:04:08.533Z,1.00
2018-01-01T15:06:39.253Z,0.25
2018-01-01T15:09:10.547Z,0.00
2018-01-01T15:11:41.242Z,0.50
2018-01-01T15:14:25.067Z,0.75
2018-01-01T15:16:57.055Z,0.00
2018-01-01T15:19:28.108Z,1.00
2018-01-01T15:21:59.615Z,1.00
2018-01-01T15:24:30.421Z,1.50
2018-01-01T15:27:00.908Z,1.50
2018-01-01T15:29:31.722Z,1.00
2018-01-01T15:32:03.277Z,3.00
2018-01-01T15:34:34.075Z,2.50
2018-01-01T15:37:05.527Z,1.25
2018-01-01T15:39:36.167Z,1.00
2018-01-01T15:42:07.223Z,2.50
2018-01-01T15:44:39.871Z,1.00
2018-01-01T15:47:10.540Z,1.00
2018-01-01T15:49:41.384Z,1.00
2018-01-01T15:52:12.290Z,1.00
2018-01-01T15:54:43.585Z,1.50
2018-01-01T15:57:14.133Z,1.50
2018-01-01T15:59:45.144Z,1.00
2018-01-01T16:02:16.211Z,1.00
2018-01-01T16:04:47.485Z,2.00
2018-01-01T16:07:18.001Z,1.00
2018-01-01T16:09:50.074Z,1.00
2018-01-01T16:12:24.405Z,1.00
2018-01-01T16:14:55.360Z,1.00
2018-01-01T16:17:27.025Z,1.50
2018-01-01T16:19:58.024Z,3.00
2018-01-01T16:22:29.298Z,3.00
2018-01-01T16:25:01.302Z,3.00
2018-01-01T16:27:32.721Z,1.00
2018-01-01T16:30:09.333Z,3.00
2018-01-01T16:32:41.142Z,2.50
2018-01-01T16:35:12.456Z,2.50
2018-01-01T16:37:47.386Z,3.00
2018-01-01T16:40:22.363Z,2.00
2018-01-01T16:42:54.649Z,1.00
2018-01-01T16:45:26.955Z,1.00
2018-01-01T16:47:57.334Z,1.50
2018-01-01T16:50:30.016Z,1.00
2018-01-01T16:53:04.122Z,1.00
2018-01-01T16:55:36.071Z,2.50
2018-01-01T16:58:07.652Z,1.00
2018-01-01T17:00:41.786Z,3.00
2018-01-01T17:03:13.374Z,1.00
2018-01-01T17:05:47.769Z,1.50
2018-01-01T17:08:33.853Z,1.00
2018-01-01T17:11:05.882Z,3.00
2018-01-01T17:13:37.712Z,1.00
2018-01-01T17:16:11.707Z,1.00
2018-01-01T17:18:42.897Z,1.00
2018-01-01T17:21:17.546Z,1.00
2018-01-01T17:23:50.043Z,1.00
2018-01-01T17:26:21.689Z,1.00
2018-01-01T17:29:00.837Z,1.00
2018-01-01T17:31:36.602Z,1.00
2018-01-01T17:34:07.783Z,2.00
2018-01-01T17:36:41.701Z,1.00
2018-01-01T17:39:12.610Z,3.00
2018-01-01T17:41:43.818Z,2.50
2018-01-01T17:44:26.138Z,1.00
2018-01-01T17:46:58.347Z,1.00
2018-01-01T17:49:30.037Z,1.00
2018-01-01T17:52:01.027Z,1.00
2018-01-01T17:54:32.108Z,1.00
2018-01-01T17:57:02.898Z,1.00
2018-01-01T17:59:35.322Z,1.00
2018-01-01T18:02:07.800Z,1.00
2018-01-01T18:04:40.565Z,1.00
2018-01-01T18:07:12.970Z,2.50
2018-01-01T18:09:43.809Z,1.50
2018-01-01T18:12:16.141Z,1.00
2018-01-01T18:14:46.796Z,1.50
2018-01-01T18:17:18.794Z,1.00
2018-01-01T18:19:55.815Z,1.00
2018-01-01T18:22:26.177Z,1.00
2018-01-01T18:25:00.229Z,0.25
2018-01-01T18:27:31.247Z,1.00
2018-01-01T18:30:07.518Z,1.00
2018-01-01T18:32:40.791Z,1.00
2018-01-01T18:35:12.452Z,1.00
2018-01-01T18:37:43.035Z,1.00
2018-01-01T18:40:19.337Z,1.00
2018-01-01T18:42:52.136Z,3.00
2018-01-01T18:45:23.707Z,1.00
2018-01-01T18:47:54.804Z,2.00
2018-01-01T18:50:26.221Z,1.00
2018-01-01T18:52:58.956Z,1.00
2018-01-01T18:55:31.653Z,1.00
2018-01-01T18:58:05.162Z,2.00
2018-01-01T19:00:43.751Z,3.00
2018-01-01T19:03:14.868Z,3.00
2018-01-01T19:05:46.225Z,1.00
2018-01-01T19:08:16.750Z,3.00
2018-01-01T19:10:47.730Z,1.50
2018-01-01T19:13:18.322Z,1.00
2018-01-01T19:15:49.323Z,1.00
2018-01-01T19:18:22.005Z,1.00
2018-01-01T19:20:58.027Z,2.50
2018-01-01T19:23:29.174Z,2.00
2018-01-01T19:25:59.598Z,3.25
2018-01-01T19:28:30.586Z,3.75
2018-01-01T19:31:01.505Z,6.75
2018-01-01T19:33:32.356Z,6.50
2018-01-01T19:36:10.837Z,7.00
2018-01-01T19:38:41.777Z,4.50
2018-01-01T19:41:12.698Z,3.00
2018-01-01T19:43:44.293Z,3.00
2018-01-01T19:46:15.868Z,3.00
2018-01-01T19:48:47.919Z,3.00
2018-01-01T19:51:19.464Z,2.00
2018-01-01T19:53:51.184Z,3.75
2018-01-01T19:56:28.458Z,4.00
2018-01-01T19:58:59.772Z,3.50
2018-01-01T20:01:31.699Z,6.00
2018-01-01T20:04:03.358Z,4.00
2018-01-01T20:06:34.416Z,6.00
2018-01-01T20:09:06.754Z,3.25
2018-01-01T20:11:40.482Z,3.75
2018-01-01T20:14:11.831Z,3.00
2018-01-01T20:16:44.570Z,3.00
2018-01-01T20:19:16.434Z,3.00
2018-01-01T20:21:47.673Z,3.00
2018-01-01T20:24:20.832Z,6.00
2018-01-01T20:26:52.763Z,4.50
2018-01-01T20:29:31.691Z,4.00
2018-01-01T20:32:05.796Z,4.50
2018-01-01T20:34:38.344Z,4.00
2018-01-01T20:37:12.119Z,6.00
2018-01-01T20:39:45.703Z,6.00
2018-01-01T20:42:17.867Z,8.00
2018-01-01T20:44:51.699Z,8.00
2018-01-01T20:47:26.690Z,6.50
2018-01-01T20:49:58.576Z,4.00
2018-01-01T20:52:32.178Z,6.00
2018-01-01T20:55:04.300Z,9.00
2018-01-01T20:57:35.599Z,7.00
2018-01-01T21:00:17.069Z,5.00
2018-01-01T21:02:50.402Z,3.75
2018-01-01T21:05:25.557Z,3.00
2018-01-01T21:07:57.737Z,4.00
2018-01-01T21:10:28.494Z,4.00
2018-01-01T21:12:59.226Z,3.00
2018-01-01T21:15:31.130Z,6.75
2018-01-01T21:18:02.298Z,6.00
2018-01-01T21:20:32.989Z,10.00
2018-01-01T21:23:04.005Z,13.50
2018-01-01T21:25:34.869Z,7.00
2018-01-01T21:28:05.740Z,7.75
2018-01-01T21:30:36.890Z,14.00
2018-01-01T21:33:07.713Z,7.75
2018-01-01T21:35:38.649Z,7.75
2018-01-01T21:38:12.849Z,6.25
2018-01-01T21:40:44.500Z,8.00
2018-01-01T21:43:15.295Z,7.50
2018-01-01T21:45:45.951Z,7.75
2018-01-01T21:48:18.375Z,8.00
2018-01-01T21:50:50.330Z,7.75
2018-01-01T21:53:22.756Z,5.50
2018-01-01T21:55:54.077Z,4.00
2018-01-01T21:58:25.335Z,8.00
2018-01-01T22:00:56.612Z,7.50
2018-01-01T22:03:27.975Z,6.00
2018-01-01T22:05:58.975Z,6.50
2018-01-01T22:08:29.739Z,7.50
2018-01-01T22:11:01.550Z,5.50
2018-01-01T22:13:32.895Z,8.00
2018-01-01T22:16:04.423Z,6.00
2018-01-01T22:18:35.609Z,6.50
2018-01-01T22:21:06.270Z,6.00
2018-01-01T22:23:37.005Z,6.00
2018-01-01T22:26:07.950Z,6.00
2018-01-01T22:28:42.557Z,4.25
2018-01-01T22:31:13.964Z,5.00
2018-01-01T22:33:45.319Z,4.00
2018-01-01T22:36:17.227Z,7.50
2018-01-01T22:38:49.662Z,6.00
2018-01-01T22:41:21.288Z,4.00
2018-01-01T22:43:54.471Z,3.00
2018-01-01T22:46:25.934Z,2.50
2018-01-01T22:48:57.105Z,3.00
2018-01-01T22:51:27.870Z,3.00
2018-01-01T22:53:58.546Z,4.25
2018-01-01T22:56:29.045Z,3.00
2018-01-01T22:59:00.173Z,1.00
2018-01-01T23:01:33.009Z,1.50
2018-01-01T23:04:05.505Z,1.00
2018-01-01T23:06:37.060Z,3.00
2018-01-01T23:09:07.870Z,1.00
2018-01-01T23:11:38.537Z,2.00
2018-01-01T23:14:09.155Z,2.50
2018-01-01T23:16:39.821Z,2.00
2018-01-01T23:19:11.853Z,3.00
2018-01-01T23:21:43.408Z,2.50
2018-01-01T23:24:15.851Z,4.25
2018-01-01T23:26:47.091Z,4.50
2018-01-01T23:29:17.621Z,3.00
2018-01-01T23:31:49.585Z,3.00
2018-01-01T23:34:21.221Z,4.75
2018-01-01T23:36:53.142Z,4.75
2018-01-01T23:39:24.791Z,6.00
2018-01-01T23:41:55.067Z,5.50
2018-01-01T23:44:25.888Z,5.75
2018-01-01T23:46:56.782Z,5.50
2018-01-01T23:49:30.649Z,7.00
2018-01-01T23:52:02.002Z,4.00
2018-01-01T23:54:32.529Z,6.00
2018-01-01T23:57:03.136Z,4.00
2018-01-01T23:59:33.984Z,4.00
